Time;durP1;ratioP1;P1;durP2;ratioP2;P2;SDS_P1;SDS_P2;PMS_P1;PMS_P2;Temp;Humidity;BMP_temperature;BMP_pressure;BME280_temperature;BME280_humidity;BME280_pressure;Samples;Min_cycle;Max_cycle;Signal;HPM_P1;HPM_P2
2022/04/20 00:01:42;;;;;;;5.38;1.65;;;6.40;97.40;;;;;;4991785;28;20449;-64
2022/04/20 00:04:09;;;;;;;10.73;1.92;;;6.30;98.20;;;;;;4990040;28;20030;-64
2022/04/20 00:06:34;;;;;;;6.32;1.95;;;6.10;99.10;;;;;;4992241;28;20073;-64
2022/04/20 00:09:00;;;;;;;4.15;1.63;;;6.00;99.70;;;;;;4990103;28;20026;-64
2022/04/20 00:11:25;;;;;;;3.33;1.40;;;6.00;99.90;;;;;;4987288;28;20046;-64
2022/04/20 00:13:51;;;;;;;6.65;2.03;;;6.00;99.90;;;;;;4991011;28;20022;-64
2022/04/20 00:16:16;;;;;;;3.75;1.65;;;5.80;99.90;;;;;;4988528;28;20035;-64
2022/04/20 00:18:42;;;;;;;5.90;1.63;;;5.70;99.90;;;;;;4996248;28;20026;-64
2022/04/20 00:21:08;;;;;;;2.95;1.60;;;5.70;99.90;;;;;;4988057;28;20109;-64
2022/04/20 00:23:33;;;;;;;3.22;1.42;;;5.70;99.90;;;;;;4988428;28;20379;-64
2022/04/20 00:25:59;;;;;;;3.25;1.20;;;5.60;99.90;;;;;;4989416;28;20109;-64
2022/04/20 00:28:24;;;;;;;2.95;1.33;;;5.40;99.90;;;;;;4986503;28;20479;-64
2022/04/20 00:30:50;;;;;;;9.45;1.90;;;5.50;99.90;;;;;;4987388;28;20478;-64
2022/04/20 00:33:15;;;;;;;3.67;1.42;;;5.60;99.90;;;;;;4986915;28;20048;-64
2022/04/20 00:35:43;;;;;;;4.38;1.48;;;5.50;99.90;;;;;;4987424;28;20493;-64
2022/04/20 00:38:08;;;;;;;3.00;1.45;;;5.40;99.90;;;;;;4983402;28;20025;-64
2022/04/20 00:40:35;;;;;;;3.42;1.35;;;5.40;99.90;;;;;;4988669;28;20034;-64
2022/04/20 00:43:00;;;;;;;3.85;1.25;;;5.40;99.90;;;;;;4990372;28;20037;-64
2022/04/20 00:45:28;;;;;;;2.97;1.20;;;5.40;99.90;;;;;;4986760;28;20030;-64
2022/04/20 00:47:55;;;;;;;3.67;2.00;;;5.40;99.90;;;;;;5014524;28;20026;-64
2022/04/20 00:50:22;;;;;;;4.28;1.50;;;5.40;99.90;;;;;;4986705;28;20034;-64
2022/04/20 00:52:48;;;;;;;5.50;1.75;;;5.40;99.90;;;;;;4990342;28;20042;-63
2022/04/20 00:55:13;;;;;;;3.83;1.63;;;5.30;99.90;;;;;;4986522;28;20034;-63
2022/04/20 00:57:39;;;;;;;3.78;1.40;;;5.20;99.90;;;;;;4985577;28;20030;-63
2022/04/20 01:00:05;;;;;;;3.40;1.20;;;5.10;99.90;;;;;;4989405;28;20026;-63
2022/04/20 01:02:31;;;;;;;2.08;1.20;;;5.00;99.90;;;;;;4991058;28;20100;-63
2022/04/20 01:04:57;;;;;;;4.32;1.55;;;5.00;99.90;;;;;;4979767;28;20089;-63
2022/04/20 01:07:23;;;;;;;3.63;1.60;;;4.90;99.90;;;;;;4990060;28;20026;-63
2022/04/20 01:09:48;;;;;;;4.35;1.65;;;4.80;99.90;;;;;;4986524;28;20042;-63
2022/04/20 01:12:16;;;;;;;4.03;1.80;;;4.80;99.90;;;;;;4989140;28;20038;-63
2022/04/20 01:14:43;;;;;;;2.80;1.30;;;4.80;99.90;;;;;;4988767;28;20033;-63
2022/04/20 01:17:08;;;;;;;6.35;1.90;;;4.70;99.90;;;;;;4987713;28;20030;-63
2022/04/20 01:19:38;;;;;;;7.55;1.92;;;4.70;99.90;;;;;;4988972;28;20041;-63
2022/04/20 01:22:05;;;;;;;3.92;1.63;;;4.60;99.90;;;;;;4993624;28;20014;-63
2022/04/20 01:24:31;;;;;;;9.93;2.17;;;4.50;99.90;;;;;;4990164;28;20113;-63
2022/04/20 01:26:57;;;;;;;3.80;1.45;;;4.50;99.90;;;;;;4986416;28;20460;-63
2022/04/20 01:29:25;;;;;;;3.03;1.52;;;4.40;99.90;;;;;;4990956;28;20536;-63
2022/04/20 01:31:50;;;;;;;6.53;1.95;;;4.60;99.90;;;;;;4990055;28;20096;-63
2022/04/20 01:34:16;;;;;;;6.20;1.63;;;4.50;99.90;;;;;;4988742;28;20466;-63
2022/04/20 01:36:42;;;;;;;6.60;2.22;;;4.50;99.90;;;;;;4990057;28;20042;-63
2022/04/20 01:39:07;;;;;;;4.03;1.73;;;4.50;99.90;;;;;;4990045;28;20470;-63
2022/04/20 01:41:33;;;;;;;5.15;1.60;;;4.50;99.90;;;;;;4991074;28;20113;-63
2022/04/20 01:43:59;;;;;;;3.80;1.77;;;4.40;99.90;;;;;;4990107;28;20040;-63
2022/04/20 01:46:24;;;;;;;7.68;1.70;;;4.40;99.90;;;;;;4995201;28;20042;-63
2022/04/20 01:48:50;;;;;;;3.83;1.42;;;4.50;99.90;;;;;;4993582;28;20045;-63
2022/04/20 01:54:00;;;;;;;3.00;1.40;;;4.40;99.90;;;;;;4992567;28;20069;-63
2022/04/20 01:56:26;;;;;;;5.65;1.80;;;4.30;99.90;;;;;;4993077;28;20058;-63
2022/04/20 01:58:51;;;;;;;4.32;1.75;;;4.20;99.90;;;;;;4986604;28;20035;-63
2022/04/20 02:04:01;;;;;;;4.47;1.65;;;4.20;99.90;;;;;;4992521;28;20077;-63
2022/04/20 02:06:27;;;;;;;3.15;1.80;;;4.10;99.90;;;;;;4993779;28;20430;-63
2022/04/20 02:08:52;;;;;;;5.60;1.65;;;4.10;99.90;;;;;;4986271;28;20450;-63
2022/04/20 02:11:18;;;;;;;5.43;1.70;;;4.00;99.90;;;;;;4994133;28;20030;-63
2022/04/20 02:13:44;;;;;;;8.02;2.28;;;3.90;99.90;;;;;;4993441;28;20019;-63
2022/04/20 02:16:09;;;;;;;3.95;1.50;;;3.80;99.90;;;;;;4991687;28;20034;-63
2022/04/20 02:18:35;;;;;;;2.33;1.42;;;4.00;99.90;;;;;;4994155;28;20065;-63
2022/04/20 02:21:00;;;;;;;3.67;1.33;;;4.10;99.90;;;;;;4990911;28;20026;-63
2022/04/20 02:23:26;;;;;;;4.45;1.98;;;4.20;99.90;;;;;;4992713;28;20479;-63
2022/04/20 02:25:53;;;;;;;4.45;1.65;;;4.00;99.90;;;;;;4993104;28;20030;-63
2022/04/20 02:28:18;;;;;;;6.68;1.42;;;4.00;99.90;;;;;;4989181;28;20293;-63
2022/04/20 02:30:44;;;;;;;5.05;1.30;;;3.90;99.90;;;;;;4984224;28;20046;-63
2022/04/20 02:33:10;;;;;;;2.15;1.30;;;3.90;99.90;;;;;;4988858;28;20034;-63
2022/04/20 02:35:36;;;;;;;6.40;2.15;;;3.80;99.90;;;;;;4993156;28;20038;-63
2022/04/20 02:38:02;;;;;;;5.30;2.08;;;3.80;99.90;;;;;;4989200;28;20150;-63
2022/04/20 02:40:30;;;;;;;7.93;1.77;;;3.70;99.90;;;;;;4989076;28;20394;-63
2022/04/20 02:42:56;;;;;;;4.65;1.80;;;3.70;99.90;;;;;;4993196;28;20029;-63
2022/04/20 02:45:22;;;;;;;4.00;1.50;;;3.80;99.90;;;;;;4992400;28;20137;-63
2022/04/20 02:47:48;;;;;;;3.30;1.52;;;3.80;99.90;;;;;;4990190;28;20034;-63
2022/04/20 02:50:13;;;;;;;4.90;1.73;;;3.70;99.90;;;;;;4992274;28;20030;-63
2022/04/20 02:52:39;;;;;;;4.50;1.73;;;3.70;99.90;;;;;;4985185;28;20122;-63
2022/04/20 02:55:05;;;;;;;4.07;1.27;;;3.60;99.90;;;;;;4992477;28;20034;-63
2022/04/20 02:57:30;;;;;;;4.00;1.27;;;3.50;99.90;;;;;;4989161;28;20033;-63
2022/04/20 02:59:56;;;;;;;5.90;1.75;;;3.50;99.90;;;;;;4991254;28;20030;-63
2022/04/20 03:02:21;;;;;;;6.07;1.98;;;3.40;99.90;;;;;;4988912;28;20033;-63
2022/04/20 03:04:47;;;;;;;5.07;1.63;;;3.30;99.90;;;;;;5005684;28;20069;-63
2022/04/20 03:07:12;;;;;;;2.13;1.20;;;3.30;99.90;;;;;;4991260;28;20035;-63
2022/04/20 03:09:38;;;;;;;6.25;2.10;;;3.20;99.90;;;;;;4990839;28;20081;-63
2022/04/20 03:12:04;;;;;;;3.50;1.65;;;3.20;99.90;;;;;;4991687;28;20498;-63
2022/04/20 03:14:30;;;;;;;5.28;1.63;;;3.20;99.90;;;;;;4992237;28;20033;-63
2022/04/20 03:16:55;;;;;;;5.35;1.80;;;3.20;99.90;;;;;;4998075;28;20023;-63
2022/04/20 03:19:21;;;;;;;4.38;1.85;;;3.20;99.90;;;;;;4991828;28;20090;-63
2022/04/20 03:21:47;;;;;;;5.07;1.63;;;3.30;99.90;;;;;;4989461;28;20085;-63
2022/04/20 03:24:12;;;;;;;4.13;1.58;;;3.30;99.90;;;;;;4994142;28;20027;-63
2022/04/20 03:26:39;;;;;;;8.32;1.55;;;3.20;99.90;;;;;;4990825;28;20080;-63
2022/04/20 03:29:05;;;;;;;3.03;1.55;;;3.20;99.90;;;;;;4991153;28;20394;-63
2022/04/20 03:31:32;;;;;;;4.70;2.05;;;3.10;99.90;;;;;;4990816;28;20042;-63
2022/04/20 03:33:57;;;;;;;8.07;2.10;;;3.10;99.90;;;;;;4995712;28;20026;-63
2022/04/20 03:36:23;;;;;;;6.15;2.65;;;3.10;99.90;;;;;;4988542;28;20125;-63
2022/04/20 03:38:49;;;;;;;4.38;1.30;;;3.00;99.90;;;;;;4990497;28;20038;-63
2022/04/20 03:41:15;;;;;;;3.08;1.73;;;2.90;99.90;;;;;;4989894;28;20022;-63
2022/04/20 03:43:40;;;;;;;5.60;2.38;;;2.80;99.90;;;;;;4990141;28;20114;-63
2022/04/20 03:46:06;;;;;;;4.18;1.83;;;2.90;99.90;;;;;;4988210;28;20030;-63
2022/04/20 03:48:31;;;;;;;4.53;1.40;;;2.90;99.90;;;;;;4991676;28;20490;-63
2022/04/20 03:50:57;;;;;;;2.40;1.20;;;2.90;99.90;;;;;;4989616;28;20034;-63
2022/04/20 03:53:23;;;;;;;2.90;1.50;;;2.90;99.90;;;;;;4991409;28;20042;-63
2022/04/20 03:55:48;;;;;;;3.17;1.50;;;2.90;99.90;;;;;;4992124;28;20522;-63
2022/04/20 03:58:14;;;;;;;3.65;1.45;;;2.80;99.90;;;;;;4989366;28;20033;-63
2022/04/20 04:00:39;;;;;;;4.03;1.75;;;2.80;99.90;;;;;;4991562;28;20072;-63
2022/04/20 04:03:05;;;;;;;7.53;1.83;;;2.80;99.90;;;;;;4997274;28;20479;-63
2022/04/20 04:05:31;;;;;;;1.80;1.10;;;2.90;99.90;;;;;;4986205;28;20434;-63
2022/04/20 04:07:56;;;;;;;3.38;1.45;;;2.80;99.90;;;;;;4989270;28;20499;-63
2022/04/20 04:10:22;;;;;;;7.10;1.63;;;2.80;99.90;;;;;;4990958;28;20057;-63
2022/04/20 04:12:47;;;;;;;2.97;1.40;;;2.70;99.90;;;;;;4988732;28;20080;-63
2022/04/20 04:15:13;;;;;;;7.47;1.85;;;2.60;99.90;;;;;;4988839;28;20026;-63
2022/04/20 04:17:39;;;;;;;5.47;1.83;;;2.60;99.90;;;;;;4990157;28;20040;-63
2022/04/20 04:20:05;;;;;;;7.28;1.90;;;2.60;99.90;;;;;;4988143;28;20033;-63
2022/04/20 04:22:31;;;;;;;4.93;1.67;;;2.50;99.90;;;;;;4987737;28;20104;-63
2022/04/20 04:24:57;;;;;;;4.03;1.63;;;2.60;99.90;;;;;;4989488;28;20058;-63
2022/04/20 04:27:23;;;;;;;6.38;1.98;;;2.50;99.90;;;;;;5004124;28;20048;-63
2022/04/20 04:29:48;;;;;;;12.43;1.77;;;2.50;99.90;;;;;;4988919;28;20149;-63
2022/04/20 04:32:14;;;;;;;3.42;1.80;;;2.50;99.90;;;;;;4987849;28;20034;-63
2022/04/20 04:34:40;;;;;;;5.90;1.77;;;2.30;99.90;;;;;;4987757;28;20089;-63
2022/04/20 04:37:06;;;;;;;5.22;1.75;;;2.40;99.90;;;;;;4987619;28;20034;-63
2022/04/20 04:39:32;;;;;;;4.05;1.42;;;2.60;99.90;;;;;;4986781;28;20462;-63
2022/04/20 04:42:00;;;;;;;5.32;2.17;;;2.60;99.90;;;;;;4989951;28;20026;-63
2022/04/20 04:44:27;;;;;;;7.93;1.98;;;2.60;99.90;;;;;;4989222;28;20407;-63
2022/04/20 04:49:37;;;;;;;6.07;1.25;;;2.60;99.90;;;;;;4989661;28;20119;-63
2022/04/20 04:52:04;;;;;;;3.17;1.60;;;2.70;99.90;;;;;;4989117;28;20057;-63
2022/04/20 04:54:30;;;;;;;2.05;1.10;;;2.70;99.90;;;;;;4988982;28;20039;-63
2022/04/20 04:56:56;;;;;;;4.70;1.98;;;2.70;99.90;;;;;;4986683;28;20248;-63
2022/04/20 04:59:21;;;;;;;2.63;1.30;;;2.60;99.90;;;;;;4990067;28;20148;-63
2022/04/20 05:01:47;;;;;;;5.55;1.48;;;2.60;99.90;;;;;;4988719;28;20035;-64
2022/04/20 05:04:13;;;;;;;5.75;1.85;;;2.70;99.90;;;;;;4987815;28;20081;-64
2022/04/20 05:06:38;;;;;;;3.25;1.20;;;2.80;99.90;;;;;;4990135;28;20086;-64
2022/04/20 05:09:04;;;;;;;2.72;1.35;;;2.90;99.90;;;;;;4988576;28;20018;-64
2022/04/20 05:11:30;;;;;;;3.88;1.38;;;3.00;99.90;;;;;;4987154;28;20023;-63
2022/04/20 05:13:56;;;;;;;7.18;1.48;;;3.10;99.90;;;;;;4986417;28;20598;-63
2022/04/20 05:16:22;;;;;;;4.65;2.30;;;3.30;99.90;;;;;;4986779;28;20446;-63
2022/04/20 05:18:47;;;;;;;5.50;2.25;;;3.30;99.90;;;;;;4989170;28;20036;-63
2022/04/20 05:21:13;;;;;;;5.13;1.98;;;3.40;99.90;;;;;;4989594;28;20025;-63
2022/04/20 05:23:39;;;;;;;3.83;1.80;;;3.50;99.90;;;;;;4984482;28;20044;-63
2022/04/20 05:26:04;;;;;;;5.75;2.15;;;3.50;99.90;;;;;;4989160;28;20109;-63
2022/04/20 05:28:30;;;;;;;5.72;1.80;;;3.60;99.90;;;;;;4986049;28;20030;-63
2022/04/20 05:30:55;;;;;;;4.90;1.63;;;3.60;99.90;;;;;;4990529;28;20066;-63
2022/04/20 05:33:21;;;;;;;7.10;2.08;;;3.70;99.90;;;;;;4984804;28;20038;-63
2022/04/20 05:35:46;;;;;;;7.03;2.47;;;3.70;99.90;;;;;;4990459;28;20031;-63
2022/04/20 05:43:40;;;;;;;5.90;2.03;;;4.00;99.90;;;;;;4982744;28;20485;-63
2022/04/20 05:46:06;;;;;;;3.35;1.48;;;4.10;99.90;;;;;;4989732;28;20026;-64
2022/04/20 05:48:33;;;;;;;11.93;2.45;;;4.30;99.90;;;;;;4988127;28;20038;-64
2022/04/20 05:50:58;;;;;;;4.68;1.75;;;4.40;99.90;;;;;;4988724;28;20034;-64
2022/04/20 05:53:24;;;;;;;6.63;2.13;;;4.60;99.90;;;;;;4985082;28;20104;-64
2022/04/20 05:55:50;;;;;;;3.40;1.55;;;4.70;99.90;;;;;;4989502;28;20454;-64
2022/04/20 05:58:15;;;;;;;4.05;1.83;;;4.80;99.90;;;;;;4986641;28;20073;-64
2022/04/20 06:00:41;;;;;;;7.32;2.28;;;4.90;99.90;;;;;;4989488;28;20022;-64
2022/04/20 06:03:07;;;;;;;6.45;1.92;;;4.90;99.90;;;;;;4987833;28;20572;-64
2022/04/20 06:05:32;;;;;;;7.15;2.58;;;5.10;99.90;;;;;;4988271;28;20057;-64
2022/04/20 06:07:58;;;;;;;7.18;2.53;;;5.20;99.90;;;;;;4987666;28;20142;-64
2022/04/20 06:10:24;;;;;;;4.28;1.88;;;5.30;99.90;;;;;;4987035;28;20038;-64
2022/04/20 06:12:49;;;;;;;6.82;2.55;;;5.50;99.90;;;;;;4987950;28;20092;-64
2022/04/20 06:15:15;;;;;;;7.82;2.33;;;5.60;99.90;;;;;;4987888;28;20038;-64
2022/04/20 06:17:41;;;;;;;6.03;2.40;;;5.70;99.90;;;;;;4986141;28;20415;-64
2022/04/20 06:20:07;;;;;;;8.80;2.83;;;5.90;99.90;;;;;;4989480;28;20097;-64
2022/04/20 06:22:33;;;;;;;6.38;2.38;;;6.00;99.90;;;;;;4983313;28;20031;-64
2022/04/20 06:24:59;;;;;;;15.85;3.30;;;6.10;99.90;;;;;;4986220;28;20057;-64
2022/04/20 06:27:31;;;;;;;5.40;2.08;;;6.20;99.90;;;;;;4984744;28;20033;-64
2022/04/20 06:29:57;;;;;;;7.18;2.63;;;6.40;99.90;;;;;;4987150;28;20058;-64
2022/04/20 06:32:24;;;;;;;6.28;2.35;;;6.60;99.90;;;;;;4990722;28;20027;-64
2022/04/20 06:34:50;;;;;;;7.38;2.25;;;6.70;99.90;;;;;;4991687;28;20473;-64
2022/04/20 06:37:17;;;;;;;10.63;3.08;;;7.00;99.90;;;;;;4991789;28;20014;-64
2022/04/20 06:39:43;;;;;;;5.57;2.13;;;7.30;99.90;;;;;;4991435;28;20097;-64
2022/04/20 06:42:08;;;;;;;10.20;3.15;;;7.50;99.90;;;;;;4992403;28;20070;-64
2022/04/20 06:44:34;;;;;;;6.07;2.33;;;7.60;99.90;;;;;;4987550;28;20031;-64
2022/04/20 06:47:00;;;;;;;5.95;2.38;;;7.80;99.90;;;;;;4989967;28;20391;-63
2022/04/20 06:49:25;;;;;;;6.90;2.35;;;8.00;99.90;;;;;;4985607;28;20027;-63
2022/04/20 07:00:06;;;;;;;5.75;2.00;;;8.90;99.90;;;;;;4988768;28;20064;-63
2022/04/20 07:02:32;;;;;;;8.50;2.40;;;9.10;99.90;;;;;;4991384;28;20030;-63
2022/04/20 07:04:57;;;;;;;5.38;2.00;;;9.40;99.90;;;;;;4988039;28;20072;-63
2022/04/20 07:07:23;;;;;;;5.88;2.25;;;9.50;99.90;;;;;;4992637;28;20037;-63
2022/04/20 07:09:48;;;;;;;5.60;1.95;;;9.60;99.90;;;;;;4984665;28;20037;-64
2022/04/20 07:12:14;;;;;;;8.57;2.35;;;9.80;99.90;;;;;;4984801;28;20062;-64
2022/04/20 07:14:40;;;;;;;8.57;2.33;;;9.80;99.90;;;;;;4986825;28;20031;-64
2022/04/20 07:17:07;;;;;;;7.13;1.88;;;9.80;99.90;;;;;;4989095;28;20034;-64
2022/04/20 07:19:34;;;;;;;6.85;1.83;;;9.90;99.90;;;;;;4990187;28;20014;-63
2022/04/20 07:22:00;;;;;;;5.65;2.10;;;10.20;99.90;;;;;;4989006;28;20023;-63
2022/04/20 07:24:25;;;;;;;9.43;1.70;;;10.40;99.90;;;;;;4992543;28;20464;-63
2022/04/20 07:26:51;;;;;;;5.40;1.80;;;10.40;99.90;;;;;;4989709;28;20504;-63
2022/04/20 07:29:16;;;;;;;6.45;1.70;;;10.40;99.90;;;;;;4990455;28;20034;-63
2022/04/20 07:31:42;;;;;;;6.25;2.10;;;10.40;99.90;;;;;;4984303;28;20134;-63
2022/04/20 07:34:08;;;;;;;7.18;2.15;;;10.60;99.90;;;;;;5016063;28;20455;-63
2022/04/20 07:36:33;;;;;;;5.65;1.85;;;10.80;99.90;;;;;;4991765;28;20042;-63
2022/04/20 07:38:59;;;;;;;6.15;1.98;;;10.70;99.90;;;;;;4990214;28;20042;-63
2022/04/20 07:41:25;;;;;;;9.50;2.50;;;10.80;99.90;;;;;;4983410;28;20620;-63
2022/04/20 07:43:51;;;;;;;5.65;2.03;;;11.20;99.90;;;;;;4991279;28;20030;-63
2022/04/20 07:46:18;;;;;;;8.27;2.08;;;11.30;99.90;;;;;;4991658;28;20099;-63
2022/04/20 07:48:44;;;;;;;4.53;1.85;;;11.40;99.90;;;;;;4991377;28;20080;-63
2022/04/20 07:51:09;;;;;;;14.27;1.90;;;11.30;99.90;;;;;;4984736;28;20113;-63
2022/04/20 07:53:35;;;;;;;5.93;1.77;;;11.50;99.90;;;;;;4987398;28;20030;-63
2022/04/20 07:56:01;;;;;;;5.55;1.85;;;11.60;99.90;;;;;;4991289;28;20120;-63
2022/04/20 07:58:26;;;;;;;4.18;1.63;;;11.70;99.50;;;;;;4986593;28;20030;-63
2022/04/20 08:00:53;;;;;;;7.38;2.42;;;11.90;99.30;;;;;;4994669;28;20022;-63
2022/04/20 08:03:19;;;;;;;5.85;1.60;;;12.10;98.40;;;;;;4989555;28;20034;-63
2022/04/20 08:05:53;;;;;;;4.97;1.80;;;12.10;98.40;;;;;;4990455;28;20458;-63
2022/04/20 08:08:19;;;;;;;9.48;2.20;;;12.30;97.40;;;;;;4985252;28;20037;-63
2022/04/20 08:10:45;;;;;;;5.65;1.98;;;12.70;98.10;;;;;;4990347;28;20029;-63
2022/04/20 08:15:55;;;;;;;6.07;2.20;;;12.90;96.10;;;;;;4990175;28;20079;-63
2022/04/20 08:18:21;;;;;;;9.00;2.95;;;13.20;96.30;;;;;;4987052;28;20130;-63
2022/04/20 08:20:47;;;;;;;4.75;1.63;;;13.30;96.10;;;;;;4991263;28;20046;-64
2022/04/20 08:23:14;;;;;;;6.15;2.05;;;14.20;95.00;;;;;;4990082;28;20111;-64
2022/04/20 08:25:39;;;;;;;4.20;1.52;;;14.70;93.20;;;;;;4985140;28;20045;-64
2022/04/20 08:28:06;;;;;;;5.57;1.60;;;14.90;93.20;;;;;;4987161;28;20042;-64
2022/04/20 08:30:32;;;;;;;7.32;1.60;;;15.10;92.10;;;;;;4986278;28;20379;-64
2022/04/20 08:32:58;;;;;;;6.15;1.83;;;16.30;90.80;;;;;;4989415;28;20104;-64
2022/04/20 08:35:24;;;;;;;6.75;1.58;;;16.30;86.40;;;;;;4987881;28;20054;-64
2022/04/20 08:37:49;;;;;;;8.93;2.30;;;16.50;90.10;;;;;;4985712;28;20039;-64
2022/04/20 08:40:15;;;;;;;5.97;2.00;;;17.30;86.40;;;;;;4983822;28;20101;-64
2022/04/20 08:42:41;;;;;;;6.05;2.00;;;17.60;86.00;;;;;;4987080;28;20459;-64
2022/04/20 08:45:08;;;;;;;6.43;2.00;;;17.20;86.80;;;;;;4989610;28;20045;-64
2022/04/20 08:47:39;;;;;;;6.82;2.50;;;17.30;88.40;;;;;;4990167;28;20030;-66
2022/04/20 08:50:06;;;;;;;6.38;2.30;;;16.60;87.20;;;;;;5003337;28;20125;-63
2022/04/20 08:52:38;;;;;;;7.53;2.45;;;15.30;89.90;;;;;;4988424;28;20030;-63
2022/04/20 08:55:07;;;;;;;7.50;2.45;;;15.50;90.70;;;;;;4985702;28;20034;-63
2022/04/20 08:57:33;;;;;;;6.35;2.03;;;15.10;90.10;;;;;;5003547;28;20446;-64
2022/04/20 09:00:00;;;;;;;7.28;2.10;;;16.70;88.80;;;;;;4989176;28;20022;-63
2022/04/20 09:02:28;;;;;;;5.47;1.98;;;17.20;88.30;;;;;;4988591;28;20019;-64
2022/04/20 09:04:54;;;;;;;5.45;1.85;;;16.60;85.90;;;;;;4988536;28;20030;-63
2022/04/20 09:07:20;;;;;;;7.45;2.15;;;15.80;88.00;;;;;;4990130;28;20053;-63
2022/04/20 09:09:46;;;;;;;6.30;2.03;;;16.20;85.20;;;;;;4988568;28;20030;-62
2022/04/20 09:12:17;;;;;;;6.03;1.88;;;15.50;86.30;;;;;;4985585;28;20040;-63
2022/04/20 09:14:43;;;;;;;7.65;2.63;;;16.10;87.50;;;;;;4986986;28;20034;-63
2022/04/20 09:17:13;;;;;;;7.45;2.25;;;15.90;85.10;;;;;;4989839;28;20019;-63
2022/04/20 09:19:40;;;;;;;5.47;1.73;;;15.90;85.90;;;;;;4988211;28;20018;-63
2022/04/20 09:22:25;;;;;;;6.43;2.13;;;15.60;84.50;;;;;;4988269;28;20027;-63
2022/04/20 09:25:07;;;;;;;5.43;1.98;;;15.90;85.60;;;;;;4988517;28;20041;-63
2022/04/20 09:27:36;;;;;;;5.85;1.70;;;16.00;82.60;;;;;;4982616;28;20054;-63
2022/04/20 09:30:04;;;;;;;6.82;1.90;;;16.00;85.10;;;;;;4987763;28;20050;-63
2022/04/20 09:32:34;;;;;;;6.07;2.33;;;16.40;83.90;;;;;;4982375;28;20030;-63
2022/04/20 09:35:03;;;;;;;8.48;2.05;;;16.40;83.00;;;;;;4990159;28;20049;-63
2022/04/20 09:37:30;;;;;;;4.15;1.60;;;16.90;81.60;;;;;;4984513;28;20053;-63
2022/04/20 09:39:56;;;;;;;7.40;2.25;;;17.30;80.00;;;;;;4989257;28;20029;-63
2022/04/20 09:42:22;;;;;;;5.43;1.63;;;16.90;80.10;;;;;;4982838;28;20018;-63
2022/04/20 09:45:19;;;;;;;4.50;1.52;;;17.10;80.70;;;;;;4989574;28;20036;-63
2022/04/20 09:50:30;;;;;;;5.75;1.63;;;18.50;75.70;;;;;;4986401;28;20381;-63
2022/04/20 09:52:59;;;;;;;4.63;1.27;;;18.80;75.50;;;;;;4987994;28;20033;-63
2022/04/20 09:55:36;;;;;;;4.73;1.60;;;19.00;75.20;;;;;;4987474;28;20104;-63
2022/04/20 09:58:21;;;;;;;5.05;1.75;;;18.90;75.50;;;;;;4984903;28;20023;-63
2022/04/20 10:00:51;;;;;;;4.82;1.73;;;18.90;75.10;;;;;;4986213;28;20026;-63
2022/04/20 10:03:28;;;;;;;4.53;1.40;;;19.60;73.50;;;;;;4990062;28;20110;-63
2022/04/20 10:05:55;;;;;;;5.70;1.80;;;19.50;74.30;;;;;;4989169;28;20441;-63
2022/04/20 10:08:21;;;;;;;6.30;1.70;;;19.00;75.30;;;;;;4992223;28;20038;-63
2022/04/20 10:10:48;;;;;;;9.70;2.13;;;19.00;72.50;;;;;;4991068;28;20030;-63
2022/04/20 10:13:15;;;;;;;7.13;1.80;;;18.10;75.40;;;;;;4993472;28;20056;-63
2022/04/20 10:18:28;;;;;;;5.53;1.50;;;18.30;73.40;;;;;;4989149;28;20394;-63
2022/04/20 10:21:00;;;;;;;4.65;1.60;;;19.20;75.50;;;;;;4993421;28;20061;-63
2022/04/20 10:23:28;;;;;;;7.55;1.85;;;18.20;75.10;;;;;;4989868;28;20018;-63
2022/04/20 10:25:57;;;;;;;5.07;1.40;;;18.50;74.40;;;;;;4993330;28;20482;-63
2022/04/20 10:28:45;;;;;;;4.80;1.60;;;19.70;73.50;;;;;;4989588;28;20470;-63
2022/04/20 10:31:20;;;;;;;5.32;1.90;;;21.00;69.60;;;;;;4986802;28;20449;-63
2022/04/20 10:33:47;;;;;;;4.53;1.60;;;20.20;69.50;;;;;;5007992;28;20022;-63
2022/04/20 10:36:16;;;;;;;4.18;1.30;;;20.30;70.00;;;;;;4991197;28;20030;-63
2022/04/20 10:38:45;;;;;;;6.18;1.90;;;21.10;68.40;;;;;;4982928;28;20372;-63
2022/04/20 10:41:13;;;;;;;5.72;1.85;;;20.90;68.60;;;;;;4989338;28;20104;-63
2022/04/20 10:43:42;;;;;;;5.75;1.80;;;19.40;69.50;;;;;;4988760;28;20026;-63
2022/04/20 10:46:20;;;;;;;6.00;1.73;;;19.50;68.30;;;;;;4992545;28;20026;-63
2022/04/20 10:48:51;;;;;;;5.88;1.98;;;20.00;70.10;;;;;;4987664;28;20033;-63
2022/04/20 10:51:18;;;;;;;10.25;1.95;;;20.80;69.70;;;;;;4989046;28;20042;-63
2022/04/20 10:53:48;;;;;;;5.63;1.58;;;20.30;69.60;;;;;;4991215;28;20022;-63
2022/04/20 10:56:14;;;;;;;6.55;1.77;;;22.10;74.90;;;;;;4991682;28;20104;-63
2022/04/20 10:59:05;;;;;;;6.38;2.10;;;19.20;69.60;;;;;;4985372;28;20033;-65
2022/04/20 11:01:31;;;;;;;6.15;2.00;;;17.60;70.70;;;;;;4988434;28;20042;-64
2022/04/20 11:04:04;;;;;;;6.25;1.90;;;19.20;73.80;;;;;;4987849;28;20034;-64
2022/04/20 11:06:59;;;;;;;7.28;2.10;;;18.80;71.60;;;;;;4990267;28;20031;-64
2022/04/20 11:09:43;;;;;;;7.68;2.00;;;20.00;68.50;;;;;;4990899;28;20026;-64
2022/04/20 11:21:03;;;;;;;6.13;2.05;;;21.80;71.40;;;;;;4987246;28;20116;-64
2022/04/20 11:23:52;;;;;;;5.10;1.90;;;20.10;68.00;;;;;;4991265;28;20053;-64
2022/04/20 11:26:20;;;;;;;5.65;1.80;;;20.10;70.30;;;;;;4989822;28;20037;-64
2022/04/20 11:28:46;;;;;;;5.63;2.00;;;20.10;69.80;;;;;;4987800;28;20030;-64
2022/04/20 11:31:12;;;;;;;6.43;1.92;;;19.40;69.90;;;;;;4987267;28;20157;-64
2022/04/20 11:33:39;;;;;;;4.97;1.85;;;19.10;70.40;;;;;;4989790;28;20034;-64
2022/04/20 11:36:05;;;;;;;4.95;1.80;;;18.60;69.80;;;;;;4990708;28;20061;-64
2022/04/20 11:38:46;;;;;;;4.70;1.63;;;19.40;69.80;;;;;;4988084;28;20023;-64
2022/04/20 11:41:12;;;;;;;4.43;1.77;;;21.60;68.20;;;;;;4990273;28;20114;-65
2022/04/20 11:43:41;;;;;;;5.25;1.85;;;19.70;68.20;;;;;;4987211;28;20022;-65
2022/04/20 11:46:08;;;;;;;5.75;2.00;;;18.80;70.40;;;;;;4992154;28;20474;-65
2022/04/20 11:48:55;;;;;;;5.95;2.20;;;18.90;70.50;;;;;;4987410;28;20367;-65
2022/04/20 11:51:23;;;;;;;5.25;1.92;;;;;;;;;;4985883;28;20049;-65
2022/04/20 11:53:49;;;;;;;4.93;1.70;;;21.90;67.40;;;;;;4983477;28;20562;-64
2022/04/20 11:56:15;;;;;;;5.45;2.00;;;20.80;67.80;;;;;;4984441;28;20080;-64
2022/04/20 11:58:46;;;;;;;6.72;1.95;;;20.10;68.50;;;;;;4980154;28;20019;-64
2022/04/20 12:01:12;;;;;;;6.15;1.98;;;21.20;67.50;;;;;;4987323;28;20403;-64
2022/04/20 12:03:41;;;;;;;5.50;2.00;;;20.20;67.90;;;;;;4987868;28;20046;-65
2022/04/20 12:06:10;;;;;;;5.93;2.03;;;20.80;66.30;;;;;;5008603;28;20409;-65
2022/04/20 12:08:40;;;;;;;5.93;1.70;;;21.90;66.80;;;;;;4979817;28;20034;-65
2022/04/20 12:11:07;;;;;;;4.60;1.60;;;20.70;68.10;;;;;;4989696;28;20034;-64
2022/04/20 12:13:33;;;;;;;4.95;1.90;;;21.60;66.00;;;;;;4989371;28;20398;-64
2022/04/20 12:16:10;;;;;;;5.45;2.00;;;20.20;68.50;;;;;;4988075;28;20030;-64
2022/04/20 12:18:39;;;;;;;6.30;1.70;;;21.20;66.80;;;;;;4986500;28;20034;-65
2022/04/20 12:21:07;;;;;;;6.82;1.88;;;23.40;67.70;;;;;;4990915;28;20045;-65
2022/04/20 12:23:36;;;;;;;5.25;2.13;;;22.30;65.00;;;;;;4990757;28;20027;-65
2022/04/20 12:26:07;;;;;;;5.07;1.58;;;21.50;64.60;;;;;;4988058;28;20511;-64
2022/04/20 12:28:43;;;;;;;4.72;1.60;;;22.20;64.70;;;;;;4988034;28;20027;-64
2022/04/20 12:31:12;;;;;;;5.38;1.80;;;21.60;67.30;;;;;;4988694;28;20038;-64
2022/04/20 12:33:39;;;;;;;4.82;1.83;;;20.60;67.40;;;;;;4983927;28;20474;-64
2022/04/20 12:36:11;;;;;;;5.45;2.30;;;20.00;68.70;;;;;;4986019;28;20032;-64
2022/04/20 12:38:44;;;;;;;5.63;1.80;;;21.50;67.40;;;;;;4988595;28;20585;-64
2022/04/20 12:41:42;;;;;;;5.35;1.90;;;22.40;66.40;;;;;;4986089;28;20031;-64
2022/04/20 12:44:39;;;;;;;6.72;2.08;;;24.20;64.80;;;;;;4987387;28;20030;-65
2022/04/20 12:47:07;;;;;;;5.30;1.77;;;23.80;62.60;;;;;;4988622;28;20062;-65
2022/04/20 12:49:33;;;;;;;6.03;2.15;;;23.80;63.60;;;;;;4990534;28;20417;-65
2022/04/20 12:52:15;;;;;;;6.13;1.90;;;21.20;64.00;;;;;;4988114;28;20030;-65
2022/04/20 12:55:04;;;;;;;9.02;1.90;;;20.80;65.60;;;;;;4989975;28;20033;-64
2022/04/20 13:03:10;;;;;;;7.13;2.50;;;;;;;;;;4990547;28;20110;-64
2022/04/20 13:05:38;;;;;;;6.35;2.15;;;23.30;62.40;;;;;;4985825;28;20038;-65
2022/04/20 13:08:05;;;;;;;5.25;1.70;;;23.20;63.90;;;;;;4983913;28;20034;-65
2022/04/20 13:10:34;;;;;;;4.97;1.58;;;22.60;64.10;;;;;;4985346;28;20080;-65
2022/04/20 13:13:00;;;;;;;5.60;2.20;;;23.30;65.20;;;;;;4984190;28;20022;-65
2022/04/20 13:15:29;;;;;;;4.53;1.70;;;22.10;63.50;;;;;;4985571;28;20446;-65
2022/04/20 13:17:57;;;;;;;11.40;2.10;;;21.70;64.90;;;;;;4986463;28;20026;-65
2022/04/20 13:20:23;;;;;;;6.05;1.75;;;22.00;66.30;;;;;;4987755;28;20026;-65
2022/04/20 13:22:49;;;;;;;6.88;2.10;;;22.60;64.10;;;;;;4988144;28;20533;-65
2022/04/20 13:27:59;;;;;;;4.78;1.80;;;24.10;62.00;;;;;;4986325;28;20213;-65
2022/04/20 13:30:35;;;;;;;8.07;2.03;;;23.50;63.60;;;;;;4989682;28;20121;-64
2022/04/20 13:33:02;;;;;;;5.97;2.13;;;23.20;63.70;;;;;;4986925;28;20049;-64
2022/04/20 13:35:27;;;;;;;7.68;2.60;;;21.00;66.00;;;;;;4994239;28;20019;-64
2022/04/20 13:37:53;;;;;;;6.30;2.63;;;19.90;68.50;;;;;;5019502;28;20029;-64
2022/04/20 13:40:20;;;;;;;7.72;3.00;;;20.20;68.70;;;;;;4995882;28;20508;-64
2022/04/20 13:42:46;;;;;;;8.85;2.72;;;20.70;69.10;;;;;;4995084;28;20029;-64